Time;durP1;ratioP1;P1;durP2;ratioP2;P2;SDS_P1;SDS_P2;PMS_P1;PMS_P2;Temp;Humidity;BMP_temperature;BMP_pressure;BME280_temperature;BME280_humidity;BME280_pressure;Samples;Min_cycle;Max_cycle;Signal;HPM_P1;HPM_P2
2021/04/18 00:02:15;;;;;;;12.87;5.50;;;;;;;;;;5008705;28;20262;-82
2021/04/18 00:04:41;;;;;;;12.73;5.50;;;;;;;;;;5009584;28;20248;-82
2021/04/18 00:07:08;;;;;;;15.50;5.53;;;;;;;;;;5007182;28;20292;-82
2021/04/18 00:09:35;;;;;;;12.57;5.73;;;;;;;;;;5008796;28;20208;-83
2021/04/18 00:12:02;;;;;;;13.97;5.27;;;;;;;;;;5007227;28;20244;-82
2021/04/18 00:14:29;;;;;;;15.30;5.13;;;;;;;;;;5005406;28;20233;-82
2021/04/18 00:16:56;;;;;;;15.03;5.47;;;;;;;;;;5009122;28;20228;-82
2021/04/18 00:19:23;;;;;;;17.73;5.83;;;;;;;;;;5008334;28;20212;-82
2021/04/18 00:21:49;;;;;;;12.63;5.87;;;;;;;;;;5011425;28;20279;-83
2021/04/18 00:24:16;;;;;;;12.73;5.73;;;;;;;;;;5006061;28;20264;-82
2021/04/18 00:26:43;;;;;;;13.03;4.97;;;;;;;;;;5008440;28;20251;-82
2021/04/18 00:29:10;;;;;;;9.53;5.17;;;;;;;;;;5007999;28;20638;-81
2021/04/18 00:31:37;;;;;;;15.00;5.70;;;;;;;;;;5009964;28;20298;-82
2021/04/18 00:34:04;;;;;;;11.70;5.53;;;;;;;;;;5009752;28;20307;-81
2021/04/18 00:36:31;;;;;;;14.67;5.67;;;;;;;;;;5011081;28;20216;-81
2021/04/18 00:38:57;;;;;;;11.97;5.27;;;;;;;;;;5008892;28;20244;-81
2021/04/18 00:41:24;;;;;;;14.47;5.37;;;;;;;;;;5008292;28;20227;-82
2021/04/18 00:43:51;;;;;;;13.70;5.33;;;;;;;;;;5008435;28;20285;-82
2021/04/18 00:46:18;;;;;;;11.50;5.43;;;;;;;;;;5008097;28;20263;-82
2021/04/18 00:48:46;;;;;;;12.97;5.20;;;;;;;;;;5010300;28;20232;-82
2021/04/18 00:51:13;;;;;;;15.17;5.63;;;;;;;;;;5006038;28;20211;-81
2021/04/18 00:53:40;;;;;;;18.20;6.10;;;;;;;;;;5007014;28;20715;-82
2021/04/18 00:56:07;;;;;;;14.17;5.33;;;;;;;;;;5009156;28;20212;-81
2021/04/18 00:58:35;;;;;;;12.00;5.40;;;;;;;;;;5004362;28;20670;-81
2021/04/18 01:01:01;;;;;;;12.83;6.10;;;;;;;;;;5006710;28;20228;-81
2021/04/18 01:03:29;;;;;;;15.63;5.43;;;;;;;;;;5005238;28;20262;-81
2021/04/18 01:05:56;;;;;;;12.50;5.17;;;;;;;;;;5006928;28;20681;-81
2021/04/18 01:08:22;;;;;;;12.00;5.50;;;;;;;;;;5005272;28;20236;-82
2021/04/18 01:10:49;;;;;;;12.30;5.17;;;;;;;;;;5007383;28;20205;-82
2021/04/18 01:13:16;;;;;;;15.33;5.57;;;;;;;;;;5008040;28;20229;-82
2021/04/18 01:15:43;;;;;;;10.60;5.63;;;;;;;;;;5008519;28;20628;-82
2021/04/18 01:18:10;;;;;;;13.10;5.50;;;;;;;;;;5008945;28;20286;-82
2021/04/18 01:20:37;;;;;;;14.80;5.23;;;;;;;;;;5011910;28;20216;-82
2021/04/18 01:23:06;;;;;;;13.47;5.50;;;;;;;;;;5010468;28;20286;-82
2021/04/18 01:25:33;;;;;;;13.43;5.30;;;;;;;;;;5017378;28;20613;-82
2021/04/18 01:27:59;;;;;;;11.97;5.40;;;;;;;;;;5012845;28;20254;-82
2021/04/18 01:30:29;;;;;;;10.10;5.30;;;;;;;;;;5013776;28;20279;-82
2021/04/18 01:32:58;;;;;;;9.37;5.23;;;;;;;;;;5013201;28;20262;-81
2021/04/18 01:35:24;;;;;;;13.37;5.47;;;;;;;;;;5030449;28;20192;-80
2021/04/18 01:37:52;;;;;;;13.77;6.00;;;;;;;;;;5033458;28;20236;-81
2021/04/18 01:40:21;;;;;;;12.53;5.77;;;;;;;;;;5031634;28;20192;-81
2021/04/18 01:42:48;;;;;;;15.93;5.60;;;;;;;;;;5012278;28;20205;-81
2021/04/18 01:45:15;;;;;;;16.53;5.80;;;;;;;;;;5012768;28;20210;-81
2021/04/18 01:47:42;;;;;;;14.17;5.70;;;;;;;;;;5013264;28;20216;-85
2021/04/18 01:50:10;;;;;;;21.80;6.30;;;;;;;;;;5008294;28;20239;-80
2021/04/18 01:52:37;;;;;;;14.07;6.27;;;;;;;;;;5013328;28;20295;-80
2021/04/18 01:55:05;;;;;;;14.47;5.40;;;;;;;;;;5009539;28;20252;-80
2021/04/18 01:57:32;;;;;;;14.13;5.20;;;;;;;;;;5010444;28;20317;-80
2021/04/18 01:59:59;;;;;;;12.60;6.10;;;;;;;;;;5012490;28;20205;-81
2021/04/18 02:02:26;;;;;;;14.67;6.13;;;;;;;;;;5012981;28;20244;-80
2021/04/18 02:04:56;;;;;;;16.30;6.07;;;;;;;;;;5012129;28;20254;-81
2021/04/18 02:07:22;;;;;;;16.73;6.30;;;;;;;;;;5013452;28;20312;-81
2021/04/18 02:09:49;;;;;;;13.67;5.93;;;;;;;;;;5011570;28;20220;-81
2021/04/18 02:12:16;;;;;;;14.97;6.63;;;;;;;;;;5011917;28;20204;-81
2021/04/18 02:14:43;;;;;;;15.27;6.97;;;;;;;;;;5009535;28;20228;-81
2021/04/18 02:17:10;;;;;;;13.90;6.00;;;;;;;;;;5011579;28;20313;-80
2021/04/18 02:19:37;;;;;;;13.20;6.27;;;;;;;;;;5011210;28;20259;-81
2021/04/18 02:22:06;;;;;;;16.70;6.20;;;;;;;;;;5013130;28;20362;-81
2021/04/18 02:24:32;;;;;;;15.93;6.67;;;;;;;;;;5014658;28;20298;-81
2021/04/18 02:26:59;;;;;;;14.17;6.33;;;;;;;;;;5016549;28;20208;-81
2021/04/18 02:29:26;;;;;;;16.97;6.30;;;;;;;;;;5013912;28;20238;-81
2021/04/18 02:31:55;;;;;;;16.33;6.27;;;;;;;;;;5013268;28;20231;-81
2021/04/18 02:34:21;;;;;;;15.70;6.00;;;;;;;;;;5012569;28;20228;-82
2021/04/18 02:36:48;;;;;;;15.73;6.53;;;;;;;;;;5014528;28;20331;-82
2021/04/18 02:39:15;;;;;;;13.73;6.20;;;;;;;;;;5011838;28;20208;-82
2021/04/18 02:41:41;;;;;;;14.10;6.60;;;;;;;;;;5012674;28;20299;-82
2021/04/18 02:44:08;;;;;;;20.23;6.43;;;;;;;;;;5014016;28;20235;-83
2021/04/18 02:46:35;;;;;;;13.80;6.23;;;;;;;;;;5011999;28;20199;-80
2021/04/18 02:49:02;;;;;;;15.93;6.40;;;;;;;;;;5011633;28;20204;-83
2021/04/18 02:51:29;;;;;;;13.63;6.07;;;;;;;;;;5013771;28;20208;-83
2021/04/18 02:53:59;;;;;;;16.60;6.20;;;;;;;;;;5013039;28;20246;-81
2021/04/18 02:56:26;;;;;;;13.27;6.07;;;;;;;;;;5018234;28;20211;-82
2021/04/18 02:58:53;;;;;;;13.27;5.93;;;;;;;;;;5014650;28;20294;-82
2021/04/18 03:01:20;;;;;;;13.60;6.27;;;;;;;;;;5014965;28;20694;-82
2021/04/18 03:03:46;;;;;;;15.63;5.87;;;;;;;;;;5013581;28;20224;-82
2021/04/18 03:06:14;;;;;;;11.87;5.67;;;;;;;;;;5013085;28;20224;-82
2021/04/18 03:08:43;;;;;;;13.00;5.90;;;;;;;;;;5011641;28;20243;-81
2021/04/18 03:11:10;;;;;;;13.40;6.00;;;;;;;;;;5014842;28;20214;-84
2021/04/18 03:13:36;;;;;;;16.87;6.17;;;;;;;;;;5012978;28;20223;-82
2021/04/18 03:16:03;;;;;;;13.27;6.00;;;;;;;;;;5014370;28;20254;-82
2021/04/18 03:18:30;;;;;;;13.70;5.97;;;;;;;;;;5015475;28;20236;-82
2021/04/18 03:20:57;;;;;;;17.93;5.80;;;;;;;;;;5018127;28;20239;-80
2021/04/18 03:23:24;;;;;;;16.53;5.80;;;;;;;;;;5035242;28;20212;-81
2021/04/18 03:25:51;;;;;;;11.17;5.33;;;;;;;;;;5038990;28;20184;-81
2021/04/18 03:28:18;;;;;;;13.03;5.80;;;;;;;;;;5028945;28;20434;-82
2021/04/18 03:30:45;;;;;;;12.27;5.80;;;;;;;;;;5014608;28;20204;-82
2021/04/18 03:33:12;;;;;;;12.35;5.95;;;;;;;;;;5012303;28;20251;-82
2021/04/18 03:35:38;;;;;;;12.70;5.63;;;;;;;;;;5012288;28;20468;-81
2021/04/18 03:38:05;;;;;;;14.27;6.00;;;;;;;;;;5015375;28;20236;-82
2021/04/18 03:40:33;;;;;;;19.10;6.10;;;;;;;;;;5019783;28;20215;-81
2021/04/18 03:43:01;;;;;;;13.03;5.80;;;;;;;;;;5015169;28;20223;-81
2021/04/18 03:45:28;;;;;;;12.50;5.63;;;;;;;;;;5009915;28;20311;-81
2021/04/18 03:47:55;;;;;;;11.87;5.60;;;;;;;;;;5009827;28;20235;-80
2021/04/18 03:50:21;;;;;;;12.37;5.50;;;;;;;;;;5012346;28;20212;-81
2021/04/18 03:52:49;;;;;;;13.17;5.70;;;;;;;;;;5010458;28;20603;-80
2021/04/18 03:55:16;;;;;;;11.40;5.20;;;;;;;;;;5013648;28;20236;-81
2021/04/18 03:57:44;;;;;;;10.73;5.30;;;;;;;;;;5008635;28;20246;-80
2021/04/18 04:00:11;;;;;;;13.43;5.30;;;;;;;;;;5010509;28;20207;-81
2021/04/18 04:02:37;;;;;;;10.27;4.83;;;;;;;;;;5010411;28;20323;-80
2021/04/18 04:05:04;;;;;;;13.07;5.10;;;;;;;;;;5010103;28;20235;-80
2021/04/18 04:07:31;;;;;;;12.83;5.57;;;;;;;;;;5010714;28;20291;-80
2021/04/18 04:09:58;;;;;;;11.70;5.10;;;;;;;;;;5013427;28;20698;-81
2021/04/18 04:12:27;;;;;;;13.67;5.43;;;;;;;;;;5012925;28;20570;-80
2021/04/18 04:14:54;;;;;;;12.40;5.50;;;;;;;;;;5006117;28;20945;-81
2021/04/18 04:17:21;;;;;;;13.97;5.33;;;;;;;;;;5008975;28;20302;-81
2021/04/18 04:19:48;;;;;;;15.33;5.73;;;;;;;;;;5008298;28;20261;-81
2021/04/18 04:22:15;;;;;;;11.30;5.10;;;;;;;;;;5011919;28;20681;-81
2021/04/18 04:24:41;;;;;;;12.40;5.53;;;;;;;;;;5010776;28;20318;-82
2021/04/18 04:27:08;;;;;;;14.37;6.60;;;;;;;;;;5004334;28;20298;-80
2021/04/18 04:29:35;;;;;;;13.53;6.90;;;;;;;;;;5004768;28;20299;-81
2021/04/18 04:32:03;;;;;;;19.10;6.77;;;;;;;;;;5005400;28;20203;-81
2021/04/18 04:34:30;;;;;;;12.93;5.80;;;;;;;;;;5008787;28;20238;-81
2021/04/18 04:36:56;;;;;;;11.17;5.33;;;;;;;;;;5008400;28;20258;-81
2021/04/18 04:39:23;;;;;;;13.17;5.60;;;;;;;;;;5012493;28;21039;-81
2021/04/18 04:41:50;;;;;;;14.47;5.47;;;;;;;;;;5012263;28;20235;-81
2021/04/18 04:44:16;;;;;;;11.33;5.07;;;;;;;;;;5007409;28;20319;-82
2021/04/18 04:46:43;;;;;;;14.37;5.87;;;;;;;;;;5007189;28;20580;-81
2021/04/18 04:49:11;;;;;;;12.13;5.20;;;;;;;;;;5008758;28;20213;-81
2021/04/18 04:51:38;;;;;;;11.57;5.90;;;;;;;;;;5011385;28;20775;-81
2021/04/18 04:54:05;;;;;;;10.03;5.07;;;;;;;;;;5009564;28;20318;-82
2021/04/18 04:56:31;;;;;;;14.93;5.97;;;;;;;;;;5013336;28;20215;-81
2021/04/18 04:58:58;;;;;;;11.60;5.90;;;;;;;;;;5010223;28;20227;-81
2021/04/18 05:01:26;;;;;;;13.17;5.60;;;;;;;;;;5014940;28;20203;-82
2021/04/18 05:03:52;;;;;;;11.93;5.63;;;;;;;;;;5015563;28;20220;-82
2021/04/18 05:06:20;;;;;;;11.70;5.27;;;;;;;;;;5017846;28;20220;-82
2021/04/18 05:08:47;;;;;;;12.00;5.13;;;;;;;;;;5026832;28;20208;-81
2021/04/18 05:11:14;;;;;;;12.47;5.03;;;;;;;;;;5040885;28;20188;-81
2021/04/18 05:13:41;;;;;;;14.00;5.90;;;;;;;;;;5033590;28;20312;-81
2021/04/18 05:16:08;;;;;;;13.33;5.47;;;;;;;;;;5020021;28;20296;-81
2021/04/18 05:18:34;;;;;;;12.50;5.77;;;;;;;;;;5011525;28;20236;-81
2021/04/18 05:21:01;;;;;;;12.83;4.87;;;;;;;;;;5015391;28;20358;-81
2021/04/18 05:23:29;;;;;;;12.07;5.70;;;;;;;;;;5012239;28;20228;-81
2021/04/18 05:25:55;;;;;;;12.10;5.50;;;;;;;;;;5014283;28;20287;-81
2021/04/18 05:28:22;;;;;;;14.40;5.97;;;;;;;;;;5012380;28;20636;-81
2021/04/18 05:30:49;;;;;;;12.93;5.97;;;;;;;;;;5016820;28;20195;-81
2021/04/18 05:33:16;;;;;;;18.77;6.07;;;;;;;;;;5015046;28;21507;-81
2021/04/18 05:35:42;;;;;;;14.10;5.83;;;;;;;;;;5015007;28;20705;-81
2021/04/18 05:38:09;;;;;;;12.23;5.67;;;;;;;;;;5018437;28;20287;-81
2021/04/18 05:40:36;;;;;;;13.53;5.90;;;;;;;;;;5014123;28;20679;-81
2021/04/18 05:43:03;;;;;;;14.47;5.60;;;;;;;;;;5012774;28;20223;-81
2021/04/18 05:45:30;;;;;;;14.50;5.70;;;;;;;;;;5009854;28;20224;-82
2021/04/18 05:47:57;;;;;;;10.90;5.47;;;;;;;;;;5011868;28;20657;-82
2021/04/18 05:50:24;;;;;;;10.83;5.27;;;;;;;;;;5013695;28;20687;-82
2021/04/18 05:52:50;;;;;;;13.27;5.67;;;;;;;;;;5012112;28;20453;-82
2021/04/18 05:55:17;;;;;;;13.80;5.77;;;;;;;;;;5011807;28;20224;-82
2021/04/18 05:57:45;;;;;;;12.37;5.67;;;;;;;;;;5011373;28;20612;-81
2021/04/18 06:00:13;;;;;;;13.67;5.80;;;;;;;;;;5011957;28;20231;-81
2021/04/18 06:02:40;;;;;;;12.40;6.03;;;;;;;;;;5011275;28;20216;-81
2021/04/18 06:05:08;;;;;;;17.87;5.87;;;;;;;;;;5012994;28;20275;-82
2021/04/18 06:07:34;;;;;;;12.30;5.80;;;;;;;;;;5008528;28;20221;-81
2021/04/18 06:10:01;;;;;;;12.10;5.20;;;;;;;;;;5011573;28;20224;-81
2021/04/18 06:12:28;;;;;;;13.43;6.17;;;;;;;;;;5008028;28;20299;-81
2021/04/18 06:14:55;;;;;;;10.53;5.90;;;;;;;;;;5009638;28;20303;-81
2021/04/18 06:17:22;;;;;;;12.97;5.63;;;;;;;;;;5009836;28;20216;-82
2021/04/18 06:19:49;;;;;;;15.20;6.30;;;;;;;;;;5011893;28;20200;-81
2021/04/18 06:22:16;;;;;;;17.17;6.43;;;;;;;;;;5011984;28;20685;-82
2021/04/18 06:24:42;;;;;;;15.23;6.00;;;;;;;;;;5012427;28;20259;-82
2021/04/18 06:27:09;;;;;;;13.70;6.30;;;;;;;;;;5010576;28;20211;-82
2021/04/18 06:29:36;;;;;;;12.97;6.30;;;;;;;;;;5009706;28;20240;-82
2021/04/18 06:32:04;;;;;;;14.73;6.27;;;;;;;;;;5011250;28;20648;-81
2021/04/18 06:34:30;;;;;;;14.70;6.10;;;;;;;;;;5011207;28;20815;-81
2021/04/18 06:36:57;;;;;;;17.50;6.73;;;;;;;;;;5011366;28;20683;-82
2021/04/18 06:39:24;;;;;;;13.00;6.90;;;;;;;;;;5009688;28;20728;-81
2021/04/18 06:41:52;;;;;;;15.97;6.70;;;;;;;;;;5009451;28;20249;-81
2021/04/18 06:44:19;;;;;;;11.30;5.60;;;;;;;;;;5011111;28;20315;-82
2021/04/18 06:46:46;;;;;;;10.90;6.30;;;;;;;;;;5009057;28;20220;-83
2021/04/18 06:49:14;;;;;;;17.40;7.13;;;;;;;;;;5008466;28;20673;-81
2021/04/18 06:51:41;;;;;;;20.03;8.47;;;;;;;;;;5011375;28;20668;-82
2021/04/18 06:54:10;;;;;;;20.43;8.17;;;;;;;;;;5013224;28;20227;-82
2021/04/18 06:56:36;;;;;;;20.57;7.40;;;;;;;;;;5024479;28;20193;-82
2021/04/18 06:59:04;;;;;;;17.73;7.17;;;;;;;;;;5030768;28;20192;-82
2021/04/18 07:01:31;;;;;;;16.23;6.80;;;;;;;;;;5030860;28;20208;-81
2021/04/18 07:07:26;;;;;;;16.50;6.67;;;;;;;;;;4987248;28;20200;-81
2021/04/18 07:09:54;;;;;;;14.20;6.33;;;;;;;;;;5009833;28;21705;-81
2021/04/18 07:12:25;;;;;;;14.90;7.07;;;;;;;;;;5009864;28;20200;-81
2021/04/18 07:14:52;;;;;;;14.47;6.87;;;;;;;;;;5006226;28;20712;-82
2021/04/18 07:17:18;;;;;;;14.33;6.53;;;;;;;;;;5008561;28;20295;-82
2021/04/18 07:19:47;;;;;;;11.43;6.47;;;;;;;;;;5009211;28;20209;-82
2021/04/18 07:22:16;;;;;;;14.93;6.83;;;;;;;;;;5009118;28;20216;-82
2021/04/18 07:24:50;;;;;;;15.63;6.83;;;;;;;;;;5010030;28;21759;-82
2021/04/18 07:27:17;;;;;;;12.93;6.37;;;;;;;;;;5011529;28;20254;-82
2021/04/18 07:29:52;;;;;;;14.63;7.03;;;;;;;;;;5008920;28;20208;-82
2021/04/18 07:32:20;;;;;;;17.43;7.20;;;;;;;;;;5009710;28;20675;-82
2021/04/18 07:34:47;;;;;;;17.80;7.37;;;;;;;;;;5010881;28;20310;-83
2021/04/18 07:37:18;;;;;;;15.37;7.13;;;;;;;;;;5009628;28;20247;-82
2021/04/18 07:39:53;;;;;;;13.90;6.77;;;;;;;;;;5007229;28;20211;-82
2021/04/18 07:42:29;;;;;;;14.70;7.27;;;;;;;;;;5010301;28;20204;-81
2021/04/18 07:44:57;;;;;;;14.50;7.30;;;;;;;;;;5009160;28;20251;-81
2021/04/18 07:47:24;;;;;;;15.30;7.23;;;;;;;;;;5012910;28;20298;-81
2021/04/18 07:49:52;;;;;;;14.63;7.17;;;;;;;;;;5009366;28;20296;-81
2021/04/18 07:52:19;;;;;;;15.60;7.03;;;;;;;;;;5010927;28;20209;-82
2021/04/18 07:54:45;;;;;;;15.30;7.07;;;;;;;;;;5012244;28;20766;-82
2021/04/18 07:57:13;;;;;;;15.33;7.03;;;;;;;;;;5009883;28;20634;-82
2021/04/18 07:59:40;;;;;;;14.30;7.00;;;;;;;;;;5004349;28;20291;-82
2021/04/18 08:02:08;;;;;;;13.53;6.77;;;;;;;;;;5010495;28;20203;-81
2021/04/18 08:04:34;;;;;;;18.17;7.30;;;;;;;;;;5008765;28;20231;-81
2021/04/18 08:07:01;;;;;;;17.80;8.27;;;;;;;;;;5006980;28;20246;-81
2021/04/18 08:09:28;;;;;;;13.83;7.13;;;;;;;;;;5004425;28;20261;-82
2021/04/18 08:12:08;;;;;;;18.40;8.33;;;;;;;;;;5008638;28;20270;-81
2021/04/18 08:14:36;;;;;;;15.77;7.77;;;;;;;;;;5005516;28;20228;-81
2021/04/18 08:17:06;;;;;;;19.93;8.17;;;;;;;;;;5008258;28;20280;-81
2021/04/18 08:19:33;;;;;;;16.70;7.87;;;;;;;;;;5008589;28;20223;-82
2021/04/18 08:22:00;;;;;;;18.53;8.10;;;;;;;;;;5008972;28;20236;-81
2021/04/18 08:24:34;;;;;;;18.63;7.90;;;;;;;;;;5008084;28;20649;-81
2021/04/18 08:27:01;;;;;;;18.80;8.00;;;;;;;;;;5009175;28;20201;-81
2021/04/18 08:29:31;;;;;;;19.40;7.63;;;;;;;;;;5008450;28;20224;-81
2021/04/18 08:32:00;;;;;;;15.67;7.73;;;;;;;;;;5008555;28;20204;-81
2021/04/18 08:34:27;;;;;;;15.57;7.70;;;;;;;;;;5009514;28;20262;-81
2021/04/18 08:36:54;;;;;;;16.43;7.70;;;;;;;;;;5009247;28;20204;-81
2021/04/18 08:39:22;;;;;;;14.90;7.93;;;;;;;;;;5008257;28;20204;-82
2021/04/18 08:41:50;;;;;;;21.20;8.10;;;;;;;;;;5010140;28;20204;-81
2021/04/18 08:44:20;;;;;;;18.50;8.50;;;;;;;;;;5023070;28;20200;-80
2021/04/18 08:46:48;;;;;;;15.23;7.53;;;;;;;;;;5026665;28;20500;-81
2021/04/18 08:49:27;;;;;;;22.87;9.20;;;;;;;;;;5027318;28;20224;-81
2021/04/18 08:51:53;;;;;;;16.50;8.93;;;;;;;;;;5005947;28;20232;-81
2021/04/18 08:54:23;;;;;;;15.97;8.80;;;;;;;;;;5007995;28;20717;-82
2021/04/18 08:56:51;;;;;;;20.47;9.57;;;;;;;;;;5007104;28;20717;-81
2021/04/18 08:59:19;;;;;;;16.77;8.10;;;;;;;;;;5004823;28;20661;-81
2021/04/18 09:01:59;;;;;;;17.50;7.83;;;;;;;;;;5004364;28;20256;-81
2021/04/18 09:04:28;;;;;;;23.97;8.47;;;;;;;;;;5009642;28;20243;-82
2021/04/18 09:06:55;;;;;;;16.30;7.73;;;;;;;;;;5006863;28;20623;-81
2021/04/18 09:09:22;;;;;;;16.80;8.03;;;;;;;;;;5006457;28;20232;-81
2021/04/18 09:11:50;;;;;;;18.57;8.07;;;4.60;99.90;;;;;;5005125;28;20232;-81
2021/04/18 09:14:23;;;;;;;17.60;8.23;;;11.10;99.90;;;;;;5008547;28;20255;-81
2021/04/18 09:16:49;;;;;;;14.97;7.67;;;11.20;99.90;;;;;;5006355;28;20213;-81
2021/04/18 09:19:24;;;;;;;18.93;8.40;;;11.20;99.90;;;;;;5006496;28;20200;-81
2021/04/18 09:21:57;;;;;;;18.53;7.93;;;11.40;99.90;;;;;;5003485;28;20199;-81
2021/04/18 09:24:23;;;;;;;17.97;8.53;;;11.50;99.90;;;;;;5004074;28;20720;-82
2021/04/18 09:26:58;;;;;;;17.83;7.47;;;11.80;99.90;;;;;;5003873;28;20646;-81
2021/04/18 09:29:28;;;;;;;15.87;8.20;;;12.20;99.90;;;;;;4989934;28;20649;-81
2021/04/18 09:32:00;;;;;;;17.27;8.07;;;12.50;99.90;;;;;;5007471;28;20603;-81
2021/04/18 09:34:27;;;;;;;18.47;8.20;;;12.50;99.90;;;;;;5006900;28;20329;-81
2021/04/18 09:36:57;;;;;;;19.47;8.53;;;12.40;99.90;;;;;;5007049;28;20203;-81
2021/04/18 09:39:27;;;;;;;14.17;7.27;;;12.50;99.90;;;;;;5008881;28;20665;-81
2021/04/18 09:41:54;;;;;;;14.80;8.13;;;12.50;99.90;;;;;;5005144;28;20201;-81
2021/04/18 09:44:29;;;;;;;16.23;7.70;;;12.40;99.90;;;;;;5008884;28;20225;-81
2021/04/18 09:47:00;;;;;;;16.53;8.00;;;12.50;99.90;;;;;;5010852;28;20299;-81
2021/04/18 09:49:28;;;;;;;19.80;8.20;;;12.50;99.90;;;;;;5009592;28;20212;-81
2021/04/18 09:52:02;;;;;;;18.57;8.07;;;12.50;99.90;;;;;;5007806;28;20211;-81
2021/04/18 09:54:33;;;;;;;14.77;7.47;;;12.40;99.90;;;;;;5005145;28;20247;-81
2021/04/18 09:57:18;;;;;;;15.97;7.53;;;12.30;99.90;;;;;;5002157;28;20243;-82
2021/04/18 10:00:00;;;;;;;17.03;7.53;;;11.90;99.90;;;;;;5001082;28;20303;-81
2021/04/18 10:02:26;;;;;;;20.20;7.73;;;11.70;99.90;;;;;;5002243;28;20204;-82
2021/04/18 10:05:07;;;;;;;16.20;7.40;;;11.50;99.90;;;;;;5003242;28;20224;-82
2021/04/18 10:07:34;;;;;;;14.13;7.33;;;11.40;99.90;;;;;;5004433;28;20239;-81
2021/04/18 10:10:01;;;;;;;12.40;7.10;;;11.40;99.90;;;;;;5006573;28;20236;-81
2021/04/18 10:12:27;;;;;;;15.63;7.43;;;11.40;99.90;;;;;;5007422;28;20325;-82
2021/04/18 10:15:05;;;;;;;13.47;7.43;;;11.40;99.90;;;;;;5008218;28;20319;-80
2021/04/18 10:17:33;;;;;;;12.90;7.47;;;11.30;99.90;;;;;;5005981;28;20372;-81
2021/04/18 10:20:00;;;;;;;14.37;7.43;;;11.30;99.90;;;;;;5002128;28;20243;-81
2021/04/18 10:22:27;;;;;;;16.73;7.73;;;11.30;99.90;;;;;;5007215;28;20665;-81
2021/04/18 10:24:56;;;;;;;15.00;8.20;;;11.30;99.90;;;;;;5008097;28;20224;-81
2021/04/18 10:27:25;;;;;;;16.53;7.57;;;11.30;99.90;;;;;;5008712;28;20200;-81
2021/04/18 10:29:53;;;;;;;15.70;8.33;;;11.30;99.90;;;;;;5016715;28;20201;-81
2021/04/18 10:32:23;;;;;;;16.67;7.67;;;11.30;99.90;;;;;;5030956;28;20294;-81
2021/04/18 10:34:51;;;;;;;18.47;7.97;;;11.50;99.90;;;;;;5016497;28;20236;-82
2021/04/18 10:37:18;;;;;;;14.13;7.23;;;11.50;99.90;;;;;;5016450;28;20201;-81
2021/04/18 10:39:45;;;;;;;17.10;7.43;;;11.50;99.90;;;;;;5008374;28;20241;-81
2021/04/18 10:42:13;;;;;;;14.40;7.57;;;11.50;99.90;;;;;;5008881;28;20291;-81
2021/04/18 10:44:40;;;;;;;14.27;7.50;;;11.50;99.90;;;;;;5004362;28;20653;-81
2021/04/18 10:47:11;;;;;;;14.33;7.07;;;11.40;99.90;;;;;;5007556;28;20668;-80
2021/04/18 10:49:38;;;;;;;12.27;7.33;;;11.60;99.90;;;;;;5004363;28;20636;-80
2021/04/18 10:52:06;;;;;;;14.27;7.00;;;11.80;99.90;;;;;;4989212;28;20654;-80
2021/04/18 10:54:33;;;;;;;11.27;6.53;;;12.10;99.90;;;;;;5005550;28;20784;-81
2021/04/18 10:56:59;;;;;;;10.70;6.70;;;12.20;99.90;;;;;;5004629;28;20239;-80
2021/04/18 10:59:27;;;;;;;15.07;6.77;;;12.30;99.90;;;;;;5005480;28;20211;-81
2021/04/18 11:01:53;;;;;;;12.93;6.90;;;12.30;99.90;;;;;;5006022;28;20243;-80
2021/04/18 11:04:21;;;;;;;13.33;7.00;;;12.30;99.90;;;;;;5004562;28;21412;-81
2021/04/18 11:06:47;;;;;;;12.97;7.23;;;12.20;99.90;;;;;;5004787;28;20210;-80
2021/04/18 11:09:14;;;;;;;12.90;7.43;;;12.20;99.90;;;;;;5006383;28;20208;-80
2021/04/18 11:11:41;;;;;;;16.43;7.50;;;12.20;99.90;;;;;;5001484;28;20216;-80
2021/04/18 11:14:10;;;;;;;13.83;7.60;;;12.20;99.90;;;;;;5005034;28;20228;-81
2021/04/18 11:16:38;;;;;;;14.77;6.73;;;12.30;99.90;;;;;;5018622;28;20184;-82
2021/04/18 11:19:04;;;;;;;14.23;7.20;;;12.30;99.90;;;;;;5031626;28;20189;-82
2021/04/18 11:21:31;;;;;;;15.20;7.53;;;12.20;99.90;;;;;;5023309;28;20205;-81
2021/04/18 11:23:58;;;;;;;14.93;7.43;;;12.20;99.90;;;;;;5006091;28;20307;-82
2021/04/18 11:26:25;;;;;;;14.00;7.30;;;12.30;99.90;;;;;;5001947;28;20208;-81
2021/04/18 11:28:52;;;;;;;28.50;8.60;;;12.30;99.90;;;;;;5004068;28;20287;-81
2021/04/18 11:31:20;;;;;;;25.23;8.57;;;12.30;99.90;;;;;;5004526;28;20212;-81
2021/04/18 11:33:47;;;;;;;25.87;9.43;;;12.20;99.90;;;;;;5003199;28;20366;-81
2021/04/18 11:36:15;;;;;;;16.80;7.77;;;12.20;99.90;;;;;;5007671;28;20315;-81
2021/04/18 11:38:41;;;;;;;15.70;8.07;;;12.30;99.90;;;;;;5007572;28;20208;-81
2021/04/18 11:41:08;;;;;;;16.23;7.70;;;12.50;99.90;;;;;;5005001;28;20192;-82
2021/04/18 11:43:35;;;;;;;14.60;7.43;;;12.60;99.90;;;;;;5004699;28;20228;-81
2021/04/18 11:46:01;;;;;;;13.40;7.40;;;12.80;99.90;;;;;;5008029;28;20212;-82
2021/04/18 11:48:28;;;;;;;14.60;7.60;;;13.00;99.90;;;;;;5008552;28;20591;-82
2021/04/18 11:50:57;;;;;;;15.23;7.37;;;12.90;99.90;;;;;;5010336;28;20205;-82
2021/04/18 11:53:25;;;;;;;14.13;7.47;;;12.90;99.90;;;;;;5002690;28;20239;-82
2021/04/18 11:55:51;;;;;;;13.07;7.07;;;12.90;99.90;;;;;;5005465;28;20251;-81
2021/04/18 11:58:18;;;;;;;16.27;8.17;;;12.80;99.90;;;;;;5002534;28;20218;-82
2021/04/18 12:00:45;;;;;;;11.53;7.10;;;12.70;99.90;;;;;;4988641;28;20683;-82
2021/04/18 12:03:16;;;;;;;14.37;7.33;;;12.70;99.90;;;;;;5009510;28;20306;-81
2021/04/18 12:05:43;;;;;;;13.43;7.20;;;12.80;99.90;;;;;;5008372;28;20196;-82
2021/04/18 12:08:18;;;;;;;14.10;7.43;;;13.10;99.90;;;;;;5009653;28;20602;-82
2021/04/18 12:10:45;;;;;;;12.40;7.17;;;13.50;99.90;;;;;;5009892;28;20223;-82
2021/04/18 12:13:11;;;;;;;13.63;6.97;;;13.60;99.90;;;;;;5013103;28;20231;-82
2021/04/18 12:15:39;;;;;;;19.20;6.87;;;13.50;99.90;;;;;;5008415;28;20239;-82
2021/04/18 12:18:07;;;;;;;12.20;6.67;;;13.80;99.90;;;;;;5016371;28;20208;-83
2021/04/18 12:20:34;;;;;;;12.10;6.97;;;14.00;99.90;;;;;;5027293;28;20192;-83
2021/04/18 12:23:00;;;;;;;13.50;7.37;;;14.00;99.90;;;;;;5023883;28;20251;-84
2021/04/18 12:25:29;;;;;;;13.20;7.93;;;14.20;99.90;;;;;;5008347;28;20200;-83
2021/04/18 12:27:56;;;;;;;16.13;7.57;;;14.20;99.90;;;;;;5002616;28;20671;-83
2021/04/18 12:30:28;;;;;;;12.70;7.83;;;14.20;99.90;;;;;;5003773;28;20208;-83
2021/04/18 12:32:55;;;;;;;14.47;7.43;;;14.00;99.90;;;;;;5004317;28;20218;-81
2021/04/18 12:35:25;;;;;;;13.50;7.10;;;14.00;99.90;;;;;;5005276;28;20712;-83
2021/04/18 12:37:52;;;;;;;16.63;7.73;;;13.80;99.90;;;;;;5002477;28;20211;-82
2021/04/18 12:40:25;;;;;;;13.97;7.10;;;13.80;99.90;;;;;;4986072;28;20200;-82
2021/04/18 12:42:57;;;;;;;11.57;7.07;;;14.10;99.90;;;;;;5002112;28;20251;-83
2021/04/18 12:45:24;;;;;;;14.43;7.10;;;14.40;99.90;;;;;;4997685;28;20231;-82
2021/04/18 12:47:50;;;;;;;12.00;7.00;;;14.70;99.90;;;;;;4996150;28;20673;-82
2021/04/18 12:50:17;;;;;;;14.90;7.27;;;14.70;99.90;;;;;;5002995;28;20724;-82
2021/04/18 12:52:44;;;;;;;14.23;7.00;;;14.80;99.90;;;;;;4985729;28;20255;-82
2021/04/18 12:55:13;;;;;;;14.17;6.97;;;15.00;99.90;;;;;;5001462;28;20216;-82
2021/04/18 12:57:40;;;;;;;14.70;6.80;;;15.30;99.90;;;;;;5003184;28;20269;-82
2021/04/18 13:00:11;;;;;;;14.30;7.60;;;15.50;99.90;;;;;;5004723;28;20315;-81
2021/04/18 13:02:37;;;;;;;14.87;7.80;;;15.20;99.90;;;;;;5004348;28;21044;-83
2021/04/18 13:05:07;;;;;;;15.00;6.97;;;14.90;99.90;;;;;;5003624;28;20312;-82
2021/04/18 13:07:37;;;;;;;23.47;12.37;;;15.40;99.90;;;;;;4997792;28;20712;-82
2021/04/18 13:10:09;;;;;;;12.40;6.73;;;15.70;99.90;;;;;;5000858;28;20201;-82
2021/04/18 13:12:38;;;;;;;12.30;6.93;;;15.40;99.90;;;;;;5000690;28;20244;-82
2021/04/18 13:15:06;;;;;;;12.53;6.53;;;15.30;99.90;;;;;;5006369;28;20771;-82
2021/04/18 13:17:36;;;;;;;13.77;7.20;;;15.10;99.90;;;;;;5004645;28;20220;-82
2021/04/18 13:20:04;;;;;;;17.03;7.40;;;14.60;99.90;;;;;;5006979;28;20204;-82
2021/04/18 13:22:33;;;;;;;15.83;7.50;;;14.50;99.90;;;;;;5011571;28;20291;-82
2021/04/18 13:25:03;;;;;;;12.53;7.40;;;14.60;99.90;;;;;;5009492;28;20318;-82
2021/04/18 13:27:31;;;;;;;18.17;7.70;;;14.60;99.90;;;;;;5007364;28;20666;-82
2021/04/18 13:29:57;;;;;;;15.73;7.90;;;14.30;99.90;;;;;;5008665;28;20208;-84
2021/04/18 13:32:25;;;;;;;17.10;9.00;;;14.10;99.90;;;;;;4994247;28;20215;-81
2021/04/18 13:35:00;;;;;;;14.97;7.80;;;14.10;99.90;;;;;;5009610;28;20220;-82
2021/04/18 13:37:28;;;;;;;14.07;7.43;;;13.90;99.90;;;;;;4991825;28;20625;-82
2021/04/18 13:39:57;;;;;;;11.30;6.77;;;14.20;99.90;;;;;;5007504;28;20626;-82
2021/04/18 13:42:25;;;;;;;14.53;7.37;;;14.40;99.90;;;;;;5009218;28;20247;-82
2021/04/18 13:44:52;;;;;;;12.87;6.97;;;14.70;99.90;;;;;;5007577;28;20252;-82
2021/04/18 13:47:19;;;;;;;15.10;7.53;;;14.90;99.90;;;;;;5009867;28;20728;-82
2021/04/18 13:49:46;;;;;;;25.00;9.70;;;15.10;99.90;;;;;;5009449;28;20212;-82
2021/04/18 13:52:18;;;;;;;18.23;7.17;;;15.30;99.90;;;;;;5007875;28;20216;-81
2021/04/18 13:54:47;;;;;;;13.47;7.30;;;15.40;99.90;;;;;;5007252;28;20255;-82